sensor_id;sensor_type;location;lat;lon;timestamp;temperature;humidity
23729;DHT22;12045;60.214;24.724;2023-05-07T00:00:23;3.70;98.10
23729;DHT22;12045;60.214;24.724;2023-05-07T00:02:50;3.20;97.90
23729;DHT22;12045;60.214;24.724;2023-05-07T00:05:19;4.20;98.20
23729;DHT22;12045;60.214;24.724;2023-05-07T00:07:47;2.90;97.80
23729;DHT22;12045;60.214;24.724;2023-05-07T00:10:15;4.50;98.10
23729;DHT22;12045;60.214;24.724;2023-05-07T00:12:42;3.30;97.80
23729;DHT22;12045;60.214;24.724;2023-05-07T00:15:10;3.60;98.00
23729;DHT22;12045;60.214;24.724;2023-05-07T00:17:38;3.10;97.60
23729;DHT22;12045;60.214;24.724;2023-05-07T00:20:06;4.00;97.90
23729;DHT22;12045;60.214;24.724;2023-05-07T00:22:35;3.50;97.90
23729;DHT22;12045;60.214;24.724;2023-05-07T00:25:02;4.40;98.30
23729;DHT22;12045;60.214;24.724;2023-05-07T00:27:30;3.00;98.00
23729;DHT22;12045;60.214;24.724;2023-05-07T00:29:57;3.10;98.20
23729;DHT22;12045;60.214;24.724;2023-05-07T00:32:25;3.20;98.40
23729;DHT22;12045;60.214;24.724;2023-05-07T00:34:52;2.90;98.60
23729;DHT22;12045;60.214;24.724;2023-05-07T00:37:20;4.00;99.20
23729;DHT22;12045;60.214;24.724;2023-05-07T00:39:48;3.60;99.10
23729;DHT22;12045;60.214;24.724;2023-05-07T00:42:15;2.80;99.00
23729;DHT22;12045;60.214;24.724;2023-05-07T00:44:43;1.70;98.80
23729;DHT22;12045;60.214;24.724;2023-05-07T00:47:11;4.20;99.30
23729;DHT22;12045;60.214;24.724;2023-05-07T00:49:41;2.90;99.00
23729;DHT22;12045;60.214;24.724;2023-05-07T00:52:14;3.80;99.50
23729;DHT22;12045;60.214;24.724;2023-05-07T00:54:43;3.40;99.30
23729;DHT22;12045;60.214;24.724;2023-05-07T00:57:10;3.10;99.10
23729;DHT22;12045;60.214;24.724;2023-05-07T00:59:41;3.40;98.80
23729;DHT22;12045;60.214;24.724;2023-05-07T01:02:09;2.80;99.40
23729;DHT22;12045;60.214;24.724;2023-05-07T01:04:36;2.40;99.50
23729;DHT22;12045;60.214;24.724;2023-05-07T01:07:05;3.60;99.90
23729;DHT22;12045;60.214;24.724;2023-05-07T01:09:32;3.10;99.90
23729;DHT22;12045;60.214;24.724;2023-05-07T01:12:03;4.20;99.90
23729;DHT22;12045;60.214;24.724;2023-05-07T01:14:31;2.80;99.90
23729;DHT22;12045;60.214;24.724;2023-05-07T01:17:00;2.70;99.90
23729;DHT22;12045;60.214;24.724;2023-05-07T01:19:29;3.50;99.90
23729;DHT22;12045;60.214;24.724;2023-05-07T01:22:02;4.20;99.90
23729;DHT22;12045;60.214;24.724;2023-05-07T01:24:31;3.30;99.90
23729;DHT22;12045;60.214;24.724;2023-05-07T01:26:59;5.40;99.90
23729;DHT22;12045;60.214;24.724;2023-05-07T01:29:29;3.10;99.90
23729;DHT22;12045;60.214;24.724;2023-05-07T01:32:01;2.70;99.90
23729;DHT22;12045;60.214;24.724;2023-05-07T01:34:31;3.50;99.90
23729;DHT22;12045;60.214;24.724;2023-05-07T01:37:00;4.50;99.90
23729;DHT22;12045;60.214;24.724;2023-05-07T01:39:29;3.00;99.90
23729;DHT22;12045;60.214;24.724;2023-05-07T01:41:58;4.60;99.90
23729;DHT22;12045;60.214;24.724;2023-05-07T01:44:27;3.70;99.90
23729;DHT22;12045;60.214;24.724;2023-05-07T01:46:54;3.70;99.90
23729;DHT22;12045;60.214;24.724;2023-05-07T01:49:22;2.60;99.90
23729;DHT22;12045;60.214;24.724;2023-05-07T01:51:50;3.00;99.90
23729;DHT22;12045;60.214;24.724;2023-05-07T01:54:18;4.00;99.90
23729;DHT22;12045;60.214;24.724;2023-05-07T01:56:45;2.80;99.90
23729;DHT22;12045;60.214;24.724;2023-05-07T01:59:15;2.50;99.90
23729;DHT22;12045;60.214;24.724;2023-05-07T02:01:42;3.10;99.90
23729;DHT22;12045;60.214;24.724;2023-05-07T02:04:10;2.70;99.90
23729;DHT22;12045;60.214;24.724;2023-05-07T02:06:37;2.70;99.90
23729;DHT22;12045;60.214;24.724;2023-05-07T02:09:05;4.10;99.90
23729;DHT22;12045;60.214;24.724;2023-05-07T02:11:32;2.90;99.90
23729;DHT22;12045;60.214;24.724;2023-05-07T02:14:00;3.10;99.90
23729;DHT22;12045;60.214;24.724;2023-05-07T02:16:27;4.00;99.90
23729;DHT22;12045;60.214;24.724;2023-05-07T02:18:54;3.70;99.90
23729;DHT22;12045;60.214;24.724;2023-05-07T02:21:22;2.50;99.90
23729;DHT22;12045;60.214;24.724;2023-05-07T02:23:50;3.50;99.90
23729;DHT22;12045;60.214;24.724;2023-05-07T02:26:18;2.60;99.90
23729;DHT22;12045;60.214;24.724;2023-05-07T02:28:45;3.80;99.90
23729;DHT22;12045;60.214;24.724;2023-05-07T02:31:13;3.50;99.90
23729;DHT22;12045;60.214;24.724;2023-05-07T02:33:40;4.30;99.90
23729;DHT22;12045;60.214;24.724;2023-05-07T02:36:09;3.00;99.90
23729;DHT22;12045;60.214;24.724;2023-05-07T02:38:36;2.60;99.90
23729;DHT22;12045;60.214;24.724;2023-05-07T02:41:05;2.50;99.90
23729;DHT22;12045;60.214;24.724;2023-05-07T02:43:33;3.00;99.90
23729;DHT22;12045;60.214;24.724;2023-05-07T02:46:07;4.20;99.90
23729;DHT22;12045;60.214;24.724;2023-05-07T02:48:35;2.10;99.90
23729;DHT22;12045;60.214;24.724;2023-05-07T02:51:03;4.00;99.90
23729;DHT22;12045;60.214;24.724;2023-05-07T02:53:32;2.20;99.90
23729;DHT22;12045;60.214;24.724;2023-05-07T02:56:00;4.00;99.90
23729;DHT22;12045;60.214;24.724;2023-05-07T02:58:28;2.40;99.90
23729;DHT22;12045;60.214;24.724;2023-05-07T03:00:55;2.30;99.90
23729;DHT22;12045;60.214;24.724;2023-05-07T03:03:23;3.10;99.90
23729;DHT22;12045;60.214;24.724;2023-05-07T03:05:50;1.40;99.90
23729;DHT22;12045;60.214;24.724;2023-05-07T03:08:18;3.80;99.90
23729;DHT22;12045;60.214;24.724;2023-05-07T03:10:46;3.90;99.90
23729;DHT22;12045;60.214;24.724;2023-05-07T03:13:13;2.60;99.90
23729;DHT22;12045;60.214;24.724;2023-05-07T03:15:41;3.20;99.90
23729;DHT22;12045;60.214;24.724;2023-05-07T03:18:09;2.60;99.90
23729;DHT22;12045;60.214;24.724;2023-05-07T03:20:36;4.20;99.90
23729;DHT22;12045;60.214;24.724;2023-05-07T03:23:04;2.40;99.90
23729;DHT22;12045;60.214;24.724;2023-05-07T03:25:32;4.00;99.90
23729;DHT22;12045;60.214;24.724;2023-05-07T03:27:59;3.10;99.90
23729;DHT22;12045;60.214;24.724;2023-05-07T03:30:27;3.30;99.90
23729;DHT22;12045;60.214;24.724;2023-05-07T03:32:54;3.10;99.90
23729;DHT22;12045;60.214;24.724;2023-05-07T03:35:22;2.90;99.90
23729;DHT22;12045;60.214;24.724;2023-05-07T03:37:52;3.80;99.90
23729;DHT22;12045;60.214;24.724;2023-05-07T03:40:20;2.90;99.90
23729;DHT22;12045;60.214;24.724;2023-05-07T03:42:47;4.40;99.90
23729;DHT22;12045;60.214;24.724;2023-05-07T03:45:15;3.50;99.90
23729;DHT22;12045;60.214;24.724;2023-05-07T03:47:43;3.60;99.90
23729;DHT22;12045;60.214;24.724;2023-05-07T03:50:10;4.40;99.90
23729;DHT22;12045;60.214;24.724;2023-05-07T03:52:38;4.50;99.90
23729;DHT22;12045;60.214;24.724;2023-05-07T03:55:06;4.90;99.90
23729;DHT22;12045;60.214;24.724;2023-05-07T03:57:34;4.40;99.90
23729;DHT22;12045;60.214;24.724;2023-05-07T04:00:02;4.40;99.90
23729;DHT22;12045;60.214;24.724;2023-05-07T04:02:31;4.40;99.90
23729;DHT22;12045;60.214;24.724;2023-05-07T04:05:00;5.50;99.90
23729;DHT22;12045;60.214;24.724;2023-05-07T04:07:28;3.80;99.90
23729;DHT22;12045;60.214;24.724;2023-05-07T04:09:55;5.00;99.90
23729;DHT22;12045;60.214;24.724;2023-05-07T04:12:22;4.70;99.90
23729;DHT22;12045;60.214;24.724;2023-05-07T04:14:50;4.90;99.90
23729;DHT22;12045;60.214;24.724;2023-05-07T04:17:17;5.60;99.90
23729;DHT22;12045;60.214;24.724;2023-05-07T04:19:45;5.60;99.90
23729;DHT22;12045;60.214;24.724;2023-05-07T04:22:12;5.40;99.90
23729;DHT22;12045;60.214;24.724;2023-05-07T04:24:40;4.90;99.90
23729;DHT22;12045;60.214;24.724;2023-05-07T04:27:07;5.40;99.90
23729;DHT22;12045;60.214;24.724;2023-05-07T04:29:35;5.20;99.90
23729;DHT22;12045;60.214;24.724;2023-05-07T04:32:02;5.60;99.90
23729;DHT22;12045;60.214;24.724;2023-05-07T04:34:30;5.20;99.90
23729;DHT22;12045;60.214;24.724;2023-05-07T04:36:58;5.80;99.90
23729;DHT22;12045;60.214;24.724;2023-05-07T04:39:26;5.00;99.90
23729;DHT22;12045;60.214;24.724;2023-05-07T04:41:54;5.40;99.90
23729;DHT22;12045;60.214;24.724;2023-05-07T04:44:21;5.40;99.90
23729;DHT22;12045;60.214;24.724;2023-05-07T04:46:49;5.30;99.90
23729;DHT22;12045;60.214;24.724;2023-05-07T04:49:16;5.60;99.90
23729;DHT22;12045;60.214;24.724;2023-05-07T04:51:44;5.90;99.90
23729;DHT22;12045;60.214;24.724;2023-05-07T04:54:11;5.80;99.30
23729;DHT22;12045;60.214;24.724;2023-05-07T04:56:39;5.70;99.10
23729;DHT22;12045;60.214;24.724;2023-05-07T04:59:06;5.80;98.50
23729;DHT22;12045;60.214;24.724;2023-05-07T05:01:34;5.90;98.50
23729;DHT22;12045;60.214;24.724;2023-05-07T05:04:02;6.00;98.70
23729;DHT22;12045;60.214;24.724;2023-05-07T05:06:29;6.00;98.40
23729;DHT22;12045;60.214;24.724;2023-05-07T05:08:57;6.40;98.10
23729;DHT22;12045;60.214;24.724;2023-05-07T05:11:24;6.20;97.60
23729;DHT22;12045;60.214;24.724;2023-05-07T05:13:52;6.70;97.40
23729;DHT22;12045;60.214;24.724;2023-05-07T05:16:19;5.90;97.20
23729;DHT22;12045;60.214;24.724;2023-05-07T05:18:47;6.80;96.00
23729;DHT22;12045;60.214;24.724;2023-05-07T05:21:14;6.50;94.80
23729;DHT22;12045;60.214;24.724;2023-05-07T05:23:41;6.40;95.50
23729;DHT22;12045;60.214;24.724;2023-05-07T05:26:09;6.60;93.60
23729;DHT22;12045;60.214;24.724;2023-05-07T05:28:37;6.60;94.00
23729;DHT22;12045;60.214;24.724;2023-05-07T05:31:05;6.70;93.50
23729;DHT22;12045;60.214;24.724;2023-05-07T05:33:32;6.60;92.90
23729;DHT22;12045;60.214;24.724;2023-05-07T05:35:59;5.80;90.60
23729;DHT22;12045;60.214;24.724;2023-05-07T05:38:27;6.20;91.10
23729;DHT22;12045;60.214;24.724;2023-05-07T05:40:54;6.40;91.60
23729;DHT22;12045;60.214;24.724;2023-05-07T05:43:22;6.80;90.80
23729;DHT22;12045;60.214;24.724;2023-05-07T05:45:50;6.80;91.80
23729;DHT22;12045;60.214;24.724;2023-05-07T05:48:17;6.90;91.50
23729;DHT22;12045;60.214;24.724;2023-05-07T05:50:45;6.50;91.80
23729;DHT22;12045;60.214;24.724;2023-05-07T05:53:12;6.90;91.80
23729;DHT22;12045;60.214;24.724;2023-05-07T05:55:40;6.70;91.20
23729;DHT22;12045;60.214;24.724;2023-05-07T05:58:08;7.10;90.90
23729;DHT22;12045;60.214;24.724;2023-05-07T06:00:36;6.80;90.30
23729;DHT22;12045;60.214;24.724;2023-05-07T06:03:04;6.70;91.10
23729;DHT22;12045;60.214;24.724;2023-05-07T06:05:32;6.90;90.50
23729;DHT22;12045;60.214;24.724;2023-05-07T06:07:59;7.00;90.50
23729;DHT22;12045;60.214;24.724;2023-05-07T06:10:27;6.60;85.80
23729;DHT22;12045;60.214;24.724;2023-05-07T06:12:54;7.10;87.60
23729;DHT22;12045;60.214;24.724;2023-05-07T06:15:22;7.30;88.30
23729;DHT22;12045;60.214;24.724;2023-05-07T06:17:49;7.50;83.70
23729;DHT22;12045;60.214;24.724;2023-05-07T06:20:17;7.60;82.50
23729;DHT22;12045;60.214;24.724;2023-05-07T06:22:44;7.10;81.40
23729;DHT22;12045;60.214;24.724;2023-05-07T06:25:11;7.70;81.60
23729;DHT22;12045;60.214;24.724;2023-05-07T06:27:39;7.60;80.00
23729;DHT22;12045;60.214;24.724;2023-05-07T06:30:07;7.60;82.40
23729;DHT22;12045;60.214;24.724;2023-05-07T06:32:36;7.80;81.50
23729;DHT22;12045;60.214;24.724;2023-05-07T06:35:04;7.30;80.60
23729;DHT22;12045;60.214;24.724;2023-05-07T06:37:31;7.80;81.80
23729;DHT22;12045;60.214;24.724;2023-05-07T06:39:59;7.90;82.00
23729;DHT22;12045;60.214;24.724;2023-05-07T06:42:27;7.90;83.30
23729;DHT22;12045;60.214;24.724;2023-05-07T06:44:54;8.10;80.30
23729;DHT22;12045;60.214;24.724;2023-05-07T06:47:22;7.80;79.50
23729;DHT22;12045;60.214;24.724;2023-05-07T06:49:50;8.20;79.00
23729;DHT22;12045;60.214;24.724;2023-05-07T06:52:18;8.40;80.40
23729;DHT22;12045;60.214;24.724;2023-05-07T06:54:46;8.30;75.90
23729;DHT22;12045;60.214;24.724;2023-05-07T06:57:14;7.90;77.00
23729;DHT22;12045;60.214;24.724;2023-05-07T06:59:41;7.00;77.80
23729;DHT22;12045;60.214;24.724;2023-05-07T07:02:08;7.90;77.80
23729;DHT22;12045;60.214;24.724;2023-05-07T07:04:36;8.10;77.70
23729;DHT22;12045;60.214;24.724;2023-05-07T07:07:05;8.10;77.00
23729;DHT22;12045;60.214;24.724;2023-05-07T07:09:33;8.20;75.40
23729;DHT22;12045;60.214;24.724;2023-05-07T07:12:01;8.10;76.80
23729;DHT22;12045;60.214;24.724;2023-05-07T07:14:28;8.20;76.70
23729;DHT22;12045;60.214;24.724;2023-05-07T07:16:56;8.30;73.50
23729;DHT22;12045;60.214;24.724;2023-05-07T07:19:23;8.30;74.50
23729;DHT22;12045;60.214;24.724;2023-05-07T07:21:51;8.20;75.10
23729;DHT22;12045;60.214;24.724;2023-05-07T07:24:18;8.40;76.60
23729;DHT22;12045;60.214;24.724;2023-05-07T07:26:48;8.90;75.30
23729;DHT22;12045;60.214;24.724;2023-05-07T07:29:16;8.80;73.20
23729;DHT22;12045;60.214;24.724;2023-05-07T07:31:43;8.50;73.30
23729;DHT22;12045;60.214;24.724;2023-05-07T07:34:11;8.60;74.80
23729;DHT22;12045;60.214;24.724;2023-05-07T07:36:38;8.80;75.00
23729;DHT22;12045;60.214;24.724;2023-05-07T07:39:13;9.00;72.60
23729;DHT22;12045;60.214;24.724;2023-05-07T07:41:40;8.90;72.40
23729;DHT22;12045;60.214;24.724;2023-05-07T07:44:08;8.70;72.00
23729;DHT22;12045;60.214;24.724;2023-05-07T07:46:35;8.80;73.80
23729;DHT22;12045;60.214;24.724;2023-05-07T07:49:03;8.80;73.20
23729;DHT22;12045;60.214;24.724;2023-05-07T07:51:31;8.90;72.40
23729;DHT22;12045;60.214;24.724;2023-05-07T07:53:58;8.80;70.90
23729;DHT22;12045;60.214;24.724;2023-05-07T07:56:26;8.50;72.20
23729;DHT22;12045;60.214;24.724;2023-05-07T07:58:53;8.70;72.10
23729;DHT22;12045;60.214;24.724;2023-05-07T08:01:20;9.70;71.70
23729;DHT22;12045;60.214;24.724;2023-05-07T08:03:51;9.50;70.40
23729;DHT22;12045;60.214;24.724;2023-05-07T08:06:18;9.60;70.80
23729;DHT22;12045;60.214;24.724;2023-05-07T08:08:46;9.80;68.90
23729;DHT22;12045;60.214;24.724;2023-05-07T08:11:14;10.00;69.90
23729;DHT22;12045;60.214;24.724;2023-05-07T08:13:41;10.10;67.80
23729;DHT22;12045;60.214;24.724;2023-05-07T08:16:09;9.90;67.40
23729;DHT22;12045;60.214;24.724;2023-05-07T08:18:36;10.20;68.60
23729;DHT22;12045;60.214;24.724;2023-05-07T08:21:04;10.00;67.90
23729;DHT22;12045;60.214;24.724;2023-05-07T08:23:32;11.00;68.40
23729;DHT22;12045;60.214;24.724;2023-05-07T08:26:01;10.50;67.90
23729;DHT22;12045;60.214;24.724;2023-05-07T08:28:29;10.40;68.70
23729;DHT22;12045;60.214;24.724;2023-05-07T08:30:56;10.10;67.50
23729;DHT22;12045;60.214;24.724;2023-05-07T08:33:24;10.20;69.10
23729;DHT22;12045;60.214;24.724;2023-05-07T08:35:52;10.20;69.20
23729;DHT22;12045;60.214;24.724;2023-05-07T08:38:20;10.40;69.60
23729;DHT22;12045;60.214;24.724;2023-05-07T08:40:47;10.30;69.60
23729;DHT22;12045;60.214;24.724;2023-05-07T08:43:16;10.50;67.10
23729;DHT22;12045;60.214;24.724;2023-05-07T08:45:49;9.70;69.10
23729;DHT22;12045;60.214;24.724;2023-05-07T08:48:22;10.30;69.10
23729;DHT22;12045;60.214;24.724;2023-05-07T08:50:52;10.50;68.30
23729;DHT22;12045;60.214;24.724;2023-05-07T08:53:20;10.70;68.10
23729;DHT22;12045;60.214;24.724;2023-05-07T08:55:48;10.60;68.30
23729;DHT22;12045;60.214;24.724;2023-05-07T08:58:16;10.70;67.10
23729;DHT22;12045;60.214;24.724;2023-05-07T09:00:43;10.70;66.40
23729;DHT22;12045;60.214;24.724;2023-05-07T09:03:11;10.60;65.80
23729;DHT22;12045;60.214;24.724;2023-05-07T09:05:41;10.60;67.20
23729;DHT22;12045;60.214;24.724;2023-05-07T09:08:15;10.20;66.10
23729;DHT22;12045;60.214;24.724;2023-05-07T09:10:44;10.00;67.60
23729;DHT22;12045;60.214;24.724;2023-05-07T09:13:12;10.10;68.70
23729;DHT22;12045;60.214;24.724;2023-05-07T09:15:41;10.40;68.80
23729;DHT22;12045;60.214;24.724;2023-05-07T09:18:09;10.40;68.70
23729;DHT22;12045;60.214;24.724;2023-05-07T09:20:37;10.80;68.20
23729;DHT22;12045;60.214;24.724;2023-05-07T09:23:07;10.70;68.00
23729;DHT22;12045;60.214;24.724;2023-05-07T09:25:36;10.90;67.80
23729;DHT22;12045;60.214;24.724;2023-05-07T09:28:04;10.80;68.70
23729;DHT22;12045;60.214;24.724;2023-05-07T09:30:37;10.90;67.90
23729;DHT22;12045;60.214;24.724;2023-05-07T09:33:04;11.10;68.10
23729;DHT22;12045;60.214;24.724;2023-05-07T09:35:32;11.30;68.40
23729;DHT22;12045;60.214;24.724;2023-05-07T09:38:00;11.40;67.40
23729;DHT22;12045;60.214;24.724;2023-05-07T09:40:31;11.30;65.70
23729;DHT22;12045;60.214;24.724;2023-05-07T09:43:10;10.90;67.40
23729;DHT22;12045;60.214;24.724;2023-05-07T09:45:38;11.40;66.70
23729;DHT22;12045;60.214;24.724;2023-05-07T09:48:06;10.90;66.70
23729;DHT22;12045;60.214;24.724;2023-05-07T09:50:48;11.00;68.90
23729;DHT22;12045;60.214;24.724;2023-05-07T09:53:17;11.10;69.30
23729;DHT22;12045;60.214;24.724;2023-05-07T09:55:45;11.20;68.30
23729;DHT22;12045;60.214;24.724;2023-05-07T09:58:14;11.60;66.90
23729;DHT22;12045;60.214;24.724;2023-05-07T10:00:43;11.80;64.60
23729;DHT22;12045;60.214;24.724;2023-05-07T10:03:11;12.30;65.80
23729;DHT22;12045;60.214;24.724;2023-05-07T10:05:40;12.70;63.50
23729;DHT22;12045;60.214;24.724;2023-05-07T10:08:08;12.40;63.80
23729;DHT22;12045;60.214;24.724;2023-05-07T10:10:36;12.80;64.20
23729;DHT22;12045;60.214;24.724;2023-05-07T10:13:05;13.00;62.40
23729;DHT22;12045;60.214;24.724;2023-05-07T10:15:38;12.90;63.10
23729;DHT22;12045;60.214;24.724;2023-05-07T10:18:06;13.30;61.70
23729;DHT22;12045;60.214;24.724;2023-05-07T10:20:36;13.20;61.90
23729;DHT22;12045;60.214;24.724;2023-05-07T10:23:04;13.50;61.20
23729;DHT22;12045;60.214;24.724;2023-05-07T10:25:33;13.60;60.60
23729;DHT22;12045;60.214;24.724;2023-05-07T10:28:06;13.60;60.10
23729;DHT22;12045;60.214;24.724;2023-05-07T10:33:06;13.60;59.60
23729;DHT22;12045;60.214;24.724;2023-05-07T10:35:39;14.00;59.30
23729;DHT22;12045;60.214;24.724;2023-05-07T10:38:08;14.30;58.70
23729;DHT22;12045;60.214;24.724;2023-05-07T10:40:36;14.10;57.90
23729;DHT22;12045;60.214;24.724;2023-05-07T10:43:04;13.90;59.20
23729;DHT22;12045;60.214;24.724;2023-05-07T10:45:36;13.90;59.20
23729;DHT22;12045;60.214;24.724;2023-05-07T10:48:13;14.00;59.00
23729;DHT22;12045;60.214;24.724;2023-05-07T10:50:45;14.10;59.40
23729;DHT22;12045;60.214;24.724;2023-05-07T10:55:48;14.20;58.50
23729;DHT22;12045;60.214;24.724;2023-05-07T11:01:01;14.60;57.80
23729;DHT22;12045;60.214;24.724;2023-05-07T11:03:29;14.30;56.80
23729;DHT22;12045;60.214;24.724;2023-05-07T11:06:14;13.70;57.60
23729;DHT22;12045;60.214;24.724;2023-05-07T11:08:55;13.00;58.70
23729;DHT22;12045;60.214;24.724;2023-05-07T11:11:49;13.80;58.80
23729;DHT22;12045;60.214;24.724;2023-05-07T11:17:10;14.30;58.60
23729;DHT22;12045;60.214;24.724;2023-05-07T11:19:49;14.00;57.40
23729;DHT22;12045;60.214;24.724;2023-05-07T11:25:04;14.00;56.70
23729;DHT22;12045;60.214;24.724;2023-05-07T11:27:33;13.20;58.30
23729;DHT22;12045;60.214;24.724;2023-05-07T11:30:01;13.30;59.00
23729;DHT22;12045;60.214;24.724;2023-05-07T11:32:30;12.90;59.40
23729;DHT22;12045;60.214;24.724;2023-05-07T11:34:59;12.70;60.00
23729;DHT22;12045;60.214;24.724;2023-05-07T11:37:27;12.60;59.00
23729;DHT22;12045;60.214;24.724;2023-05-07T11:40:08;13.50;59.10
23729;DHT22;12045;60.214;24.724;2023-05-07T11:42:38;13.90;58.50
23729;DHT22;12045;60.214;24.724;2023-05-07T11:45:06;14.20;57.80
23729;DHT22;12045;60.214;24.724;2023-05-07T11:47:34;14.20;57.20
23729;DHT22;12045;60.214;24.724;2023-05-07T11:50:07;14.30;57.40
23729;DHT22;12045;60.214;24.724;2023-05-07T11:52:35;14.50;57.10
23729;DHT22;12045;60.214;24.724;2023-05-07T11:55:03;14.20;57.30
23729;DHT22;12045;60.214;24.724;2023-05-07T11:57:33;14.30;57.80
23729;DHT22;12045;60.214;24.724;2023-05-07T12:00:02;14.00;56.40
23729;DHT22;12045;60.214;24.724;2023-05-07T12:02:31;13.70;56.80
23729;DHT22;12045;60.214;24.724;2023-05-07T12:05:00;13.40;58.10
23729;DHT22;12045;60.214;24.724;2023-05-07T12:07:28;13.70;58.50
23729;DHT22;12045;60.214;24.724;2023-05-07T12:09:55;14.00;58.10
23729;DHT22;12045;60.214;24.724;2023-05-07T12:12:23;14.30;57.70
23729;DHT22;12045;60.214;24.724;2023-05-07T12:14:50;13.30;56.90
23729;DHT22;12045;60.214;24.724;2023-05-07T12:17:18;12.80;58.10
23729;DHT22;12045;60.214;24.724;2023-05-07T12:19:47;12.50;58.90
23729;DHT22;12045;60.214;24.724;2023-05-07T12:22:18;13.20;58.90
23729;DHT22;12045;60.214;24.724;2023-05-07T12:24:57;13.00;58.20
23729;DHT22;12045;60.214;24.724;2023-05-07T12:27:25;12.70;59.20
23729;DHT22;12045;60.214;24.724;2023-05-07T12:29:53;12.80;59.80
23729;DHT22;12045;60.214;24.724;2023-05-07T12:32:22;13.30;58.60
23729;DHT22;12045;60.214;24.724;2023-05-07T12:34:50;13.30;57.60
23729;DHT22;12045;60.214;24.724;2023-05-07T12:37:26;13.50;57.70
23729;DHT22;12045;60.214;24.724;2023-05-07T12:40:10;13.60;57.10
23729;DHT22;12045;60.214;24.724;2023-05-07T12:42:40;13.00;58.60
23729;DHT22;12045;60.214;24.724;2023-05-07T12:45:12;13.00;59.40
23729;DHT22;12045;60.214;24.724;2023-05-07T12:47:44;12.90;58.50
23729;DHT22;12045;60.214;24.724;2023-05-07T12:50:13;13.40;58.60
23729;DHT22;12045;60.214;24.724;2023-05-07T12:52:47;13.80;58.80
23729;DHT22;12045;60.214;24.724;2023-05-07T12:55:15;13.60;58.10
23729;DHT22;12045;60.214;24.724;2023-05-07T12:57:47;13.70;57.60
23729;DHT22;12045;60.214;24.724;2023-05-07T13:00:15;13.50;57.20
23729;DHT22;12045;60.214;24.724;2023-05-07T13:02:43;13.70;57.20
23729;DHT22;12045;60.214;24.724;2023-05-07T13:05:14;13.80;57.00
23729;DHT22;12045;60.214;24.724;2023-05-07T13:07:53;13.90;57.20
23729;DHT22;12045;60.214;24.724;2023-05-07T13:10:22;13.60;56.70
23729;DHT22;12045;60.214;24.724;2023-05-07T13:12:53;13.00;57.80
23729;DHT22;12045;60.214;24.724;2023-05-07T13:15:21;12.50;58.00
23729;DHT22;12045;60.214;24.724;2023-05-07T13:17:49;12.90;59.00
23729;DHT22;12045;60.214;24.724;2023-05-07T13:20:16;13.30;58.20
23729;DHT22;12045;60.214;24.724;2023-05-07T13:22:44;12.50;58.90
23729;DHT22;12045;60.214;24.724;2023-05-07T13:25:11;12.50;58.70
23729;DHT22;12045;60.214;24.724;2023-05-07T13:27:39;12.30;59.50
23729;DHT22;12045;60.214;24.724;2023-05-07T13:30:07;12.20;59.00
23729;DHT22;12045;60.214;24.724;2023-05-07T13:32:35;11.70;59.30
23729;DHT22;12045;60.214;24.724;2023-05-07T13:35:04;12.30;60.40
23729;DHT22;12045;60.214;24.724;2023-05-07T13:37:31;12.30;59.50
23729;DHT22;12045;60.214;24.724;2023-05-07T13:39:59;12.30;59.80
23729;DHT22;12045;60.214;24.724;2023-05-07T13:42:26;12.20;59.30
23729;DHT22;12045;60.214;24.724;2023-05-07T13:44:54;12.20;60.00
23729;DHT22;12045;60.214;24.724;2023-05-07T13:47:21;12.30;59.80
23729;DHT22;12045;60.214;24.724;2023-05-07T13:49:50;12.20;59.40
23729;DHT22;12045;60.214;24.724;2023-05-07T13:52:18;12.00;59.70
23729;DHT22;12045;60.214;24.724;2023-05-07T13:54:47;12.40;60.50
23729;DHT22;12045;60.214;24.724;2023-05-07T13:57:16;12.10;59.80
23729;DHT22;12045;60.214;24.724;2023-05-07T13:59:43;12.20;60.40
23729;DHT22;12045;60.214;24.724;2023-05-07T14:02:11;12.10;59.40
23729;DHT22;12045;60.214;24.724;2023-05-07T14:04:38;12.00;60.10
23729;DHT22;12045;60.214;24.724;2023-05-07T14:07:06;11.90;59.80
23729;DHT22;12045;60.214;24.724;2023-05-07T14:09:34;11.70;60.00
23729;DHT22;12045;60.214;24.724;2023-05-07T14:12:01;11.70;60.50
23729;DHT22;12045;60.214;24.724;2023-05-07T14:14:29;11.60;60.80
23729;DHT22;12045;60.214;24.724;2023-05-07T14:16:57;11.70;61.30
23729;DHT22;12045;60.214;24.724;2023-05-07T14:19:24;12.00;61.00
23729;DHT22;12045;60.214;24.724;2023-05-07T14:21:52;11.70;60.40
23729;DHT22;12045;60.214;24.724;2023-05-07T14:24:19;12.00;61.10
23729;DHT22;12045;60.214;24.724;2023-05-07T14:27:04;11.80;61.20
23729;DHT22;12045;60.214;24.724;2023-05-07T14:29:31;11.70;60.40
23729;DHT22;12045;60.214;24.724;2023-05-07T14:31:59;11.80;60.50
23729;DHT22;12045;60.214;24.724;2023-05-07T14:34:26;11.70;59.70
23729;DHT22;12045;60.214;24.724;2023-05-07T14:36:54;11.50;59.50
23729;DHT22;12045;60.214;24.724;2023-05-07T14:39:22;11.30;60.00
23729;DHT22;12045;60.214;24.724;2023-05-07T14:41:50;11.60;59.70
23729;DHT22;12045;60.214;24.724;2023-05-07T14:44:17;11.70;59.70
23729;DHT22;12045;60.214;24.724;2023-05-07T14:46:45;11.70;59.60
23729;DHT22;12045;60.214;24.724;2023-05-07T14:49:14;11.80;59.80
23729;DHT22;12045;60.214;24.724;2023-05-07T14:51:44;11.80;58.60
23729;DHT22;12045;60.214;24.724;2023-05-07T14:54:13;11.60;58.20
23729;DHT22;12045;60.214;24.724;2023-05-07T14:56:41;11.60;57.90
23729;DHT22;12045;60.214;24.724;2023-05-07T14:59:09;11.40;58.10
23729;DHT22;12045;60.214;24.724;2023-05-07T15:01:37;11.30;58.60
23729;DHT22;12045;60.214;24.724;2023-05-07T15:04:05;11.40;58.60
23729;DHT22;12045;60.214;24.724;2023-05-07T15:06:33;11.60;57.90
23729;DHT22;12045;60.214;24.724;2023-05-07T15:09:00;11.70;58.30
23729;DHT22;12045;60.214;24.724;2023-05-07T15:11:27;11.80;58.70
23729;DHT22;12045;60.214;24.724;2023-05-07T15:13:55;11.80;59.00
23729;DHT22;12045;60.214;24.724;2023-05-07T15:16:23;11.90;59.40
23729;DHT22;12045;60.214;24.724;2023-05-07T15:18:50;12.50;59.10
23729;DHT22;12045;60.214;24.724;2023-05-07T15:21:18;12.30;59.10
23729;DHT22;12045;60.214;24.724;2023-05-07T15:23:46;12.10;59.10
23729;DHT22;12045;60.214;24.724;2023-05-07T15:26:13;12.20;59.00
23729;DHT22;12045;60.214;24.724;2023-05-07T15:28:40;12.30;59.40
23729;DHT22;12045;60.214;24.724;2023-05-07T15:31:09;12.80;59.00
23729;DHT22;12045;60.214;24.724;2023-05-07T15:33:37;12.20;58.70
23729;DHT22;12045;60.214;24.724;2023-05-07T15:36:05;12.00;58.30
23729;DHT22;12045;60.214;24.724;2023-05-07T15:38:33;12.00;59.10
23729;DHT22;12045;60.214;24.724;2023-05-07T15:41:01;12.40;58.90
23729;DHT22;12045;60.214;24.724;2023-05-07T15:43:28;13.30;59.40
23729;DHT22;12045;60.214;24.724;2023-05-07T15:45:55;12.20;58.70